Terminal Aerodrome Forecast
Issued by NWS Detroit/Pontiac, MI

Home | Current Version | Previous Version | Text Only | Print | Product List | Glossary On
Versions: 1 2 3 4 5 6 7 8 9 10 11 12 13 14 15 16 17 18 19 20 21 22 23 24 25 26 27 28 29 30 31 32
997
FTUS43 KDTX 242040 AAB
TAFDTW
TAF AMD
KDTW 242040Z 2421/2524 30009KT P6SM OVC011
     FM250200 25005KT 3SM BR OVC008
     FM250600 VRB04KT 1SM BR OVC005
     FM251000 VRB03KT 1/2SM FG OVC002
     FM251500 13005KT 3SM BR OVC012
     FM251800 15008KT 6SM BR OVC012=

USA.gov is the U.S. government's official web portal to all federal, state and local government web resources and services.